createdAt,value
2023-05-24T00:02:01.587Z,19.73
2023-05-24T00:04:28.230Z,19.54
2023-05-24T00:06:55.185Z,19.53
2023-05-24T00:09:22.237Z,19.59
2023-05-24T00:11:49.235Z,19.48
2023-05-24T00:14:17.569Z,19.42
2023-05-24T00:16:44.508Z,19.50
2023-05-24T00:19:11.465Z,19.58
2023-05-24T00:21:38.528Z,19.50
2023-05-24T00:24:05.485Z,19.45
2023-05-24T00:26:32.170Z,19.44
2023-05-24T00:28:58.888Z,19.22
2023-05-24T00:31:26.909Z,19.25
2023-05-24T00:33:53.535Z,19.17
2023-05-24T00:36:20.378Z,19.21
2023-05-24T00:38:47.339Z,19.31
2023-05-24T00:41:13.976Z,19.35
2023-05-24T00:43:40.828Z,19.39
2023-05-24T00:46:16.167Z,19.39
2023-05-24T00:48:45.316Z,19.41
2023-05-24T00:51:13.338Z,19.43
2023-05-24T00:53:41.963Z,19.47
2023-05-24T00:56:10.139Z,19.44
2023-05-24T00:58:37.157Z,19.40
2023-05-24T01:01:04.274Z,19.36
2023-05-24T01:03:31.287Z,19.36
2023-05-24T01:06:02.178Z,19.16
2023-05-24T01:08:57.011Z,19.11
2023-05-24T01:11:31.072Z,19.18
2023-05-24T01:14:07.004Z,19.12
2023-05-24T01:16:51.929Z,19.06
2023-05-24T01:19:40.363Z,19.03
2023-05-24T01:22:21.391Z,18.91
2023-05-24T01:24:59.132Z,18.96
2023-05-24T01:27:28.995Z,19.03
2023-05-24T01:29:56.636Z,18.98
2023-05-24T01:32:23.803Z,18.99
2023-05-24T01:34:50.471Z,18.96
2023-05-24T01:37:17.249Z,18.92
2023-05-24T01:39:43.907Z,18.87
2023-05-24T01:42:23.586Z,18.77
2023-05-24T01:45:01.379Z,18.73
2023-05-24T01:47:39.523Z,18.68
2023-05-24T01:50:14.000Z,18.68
2023-05-24T01:52:44.021Z,18.73
2023-05-24T01:55:13.597Z,18.68
2023-05-24T01:57:43.597Z,18.66
2023-05-24T02:00:14.896Z,18.60
2023-05-24T02:02:41.867Z,18.60
2023-05-24T02:05:10.485Z,18.62
2023-05-24T02:07:37.132Z,18.67
2023-05-24T02:10:05.080Z,18.69
2023-05-24T02:12:31.862Z,18.71
2023-05-24T02:14:58.550Z,18.66
2023-05-24T02:17:26.997Z,18.77
2023-05-24T02:19:53.862Z,18.74
2023-05-24T02:22:20.812Z,18.72
2023-05-24T02:24:47.635Z,18.74
2023-05-24T02:27:15.320Z,18.66
2023-05-24T02:29:42.130Z,18.73
2023-05-24T02:32:09.036Z,18.73
2023-05-24T02:34:37.042Z,18.61
2023-05-24T02:37:03.856Z,18.71
2023-05-24T02:39:30.627Z,18.83
2023-05-24T02:41:57.835Z,18.71
2023-05-24T02:44:24.538Z,18.57
2023-05-24T02:46:51.167Z,18.49
2023-05-24T02:49:17.897Z,18.47
2023-05-24T02:51:45.911Z,18.40
2023-05-24T02:54:12.712Z,18.40
2023-05-24T02:56:39.345Z,18.26
2023-05-24T02:59:05.980Z,18.31
2023-05-24T03:01:33.391Z,18.38
2023-05-24T03:04:00.323Z,18.42
2023-05-24T03:06:26.998Z,18.40
2023-05-24T03:08:55.186Z,18.45
2023-05-24T03:11:22.438Z,18.44
2023-05-24T03:13:49.207Z,18.46
2023-05-24T03:16:16.104Z,18.44
2023-05-24T03:18:42.918Z,18.51
2023-05-24T03:21:09.630Z,18.60
2023-05-24T03:23:36.504Z,18.60
2023-05-24T03:26:04.555Z,18.61
2023-05-24T03:28:31.199Z,18.61
2023-05-24T03:30:58.158Z,18.59
2023-05-24T03:33:24.897Z,18.59
2023-05-24T03:35:51.585Z,18.47
2023-05-24T03:38:18.598Z,18.42
2023-05-24T03:40:45.360Z,18.25
2023-05-24T03:43:13.521Z,18.21
2023-05-24T03:45:40.432Z,18.29
2023-05-24T03:48:07.208Z,18.49
2023-05-24T03:50:34.067Z,18.43
2023-05-24T03:53:00.825Z,18.33
2023-05-24T03:55:27.487Z,18.27
2023-05-24T03:57:54.092Z,18.13
2023-05-24T04:00:22.389Z,18.09
2023-05-24T04:02:49.268Z,18.04
2023-05-24T04:05:16.083Z,18.11
2023-05-24T04:07:42.768Z,18.11
2023-05-24T04:10:09.899Z,18.23
2023-05-24T04:12:36.540Z,18.43
2023-05-24T04:15:03.777Z,18.33
2023-05-24T04:17:31.938Z,18.26
2023-05-24T04:19:58.646Z,18.27
2023-05-24T04:22:25.874Z,18.33
2023-05-24T04:24:52.753Z,18.32
2023-05-24T04:27:19.666Z,18.19
2023-05-24T04:29:46.354Z,18.32
2023-05-24T04:32:12.954Z,18.44
2023-05-24T04:34:41.069Z,18.54
2023-05-24T04:37:08.374Z,18.61
2023-05-24T04:39:35.067Z,18.66
2023-05-24T04:42:01.744Z,18.73
2023-05-24T04:44:28.723Z,18.82
2023-05-24T04:46:55.499Z,18.86
2023-05-24T04:49:22.175Z,18.81
2023-05-24T04:51:50.579Z,18.77
2023-05-24T04:54:17.238Z,18.74
2023-05-24T04:56:43.825Z,18.68
2023-05-24T04:59:10.507Z,18.73
2023-05-24T05:01:37.309Z,18.92
2023-05-24T05:04:04.004Z,18.93
2023-05-24T05:06:30.686Z,19.05
2023-05-24T05:08:58.810Z,19.07
2023-05-24T05:11:25.496Z,19.13
2023-05-24T05:13:52.782Z,19.21
2023-05-24T05:16:19.522Z,19.40
2023-05-24T05:18:46.163Z,19.33
2023-05-24T05:21:12.875Z,19.22
2023-05-24T05:23:39.547Z,19.17
2023-05-24T05:26:07.665Z,19.04
2023-05-24T05:28:34.365Z,18.87
2023-05-24T05:31:01.271Z,18.89
2023-05-24T05:33:27.966Z,19.10
2023-05-24T05:35:55.023Z,19.28
2023-05-24T05:38:21.909Z,19.50
2023-05-24T05:40:48.551Z,19.78
2023-05-24T05:43:16.645Z,19.92
2023-05-24T05:45:43.294Z,20.19
2023-05-24T05:48:10.024Z,20.45
2023-05-24T05:50:36.740Z,20.55
2023-05-24T05:53:03.338Z,20.50
2023-05-24T05:55:29.946Z,20.53
2023-05-24T05:57:56.645Z,20.63
2023-05-24T06:00:24.819Z,21.10
2023-05-24T06:02:51.612Z,21.41
2023-05-24T06:05:19.007Z,21.73
2023-05-24T06:07:45.682Z,21.79
2023-05-24T06:10:12.305Z,22.21
2023-05-24T06:12:38.978Z,22.37
2023-05-24T06:15:06.828Z,22.14
2023-05-24T06:17:37.141Z,21.97
2023-05-24T06:20:04.498Z,22.23
2023-05-24T06:22:31.130Z,22.34
2023-05-24T06:24:57.847Z,22.42
2023-05-24T06:27:24.646Z,22.29
2023-05-24T06:29:51.356Z,22.38
2023-05-24T06:32:18.052Z,22.09
2023-05-24T06:34:46.812Z,22.40
2023-05-24T06:37:13.437Z,22.27
2023-05-24T06:39:40.071Z,22.59
2023-05-24T06:42:07.212Z,22.09
2023-05-24T06:44:34.027Z,22.22
2023-05-24T06:47:01.243Z,22.80
2023-05-24T06:49:28.313Z,22.18
2023-05-24T06:51:56.369Z,21.25
2023-05-24T06:54:22.977Z,20.76
2023-05-24T06:56:49.754Z,20.21
2023-05-24T06:59:16.429Z,20.24
2023-05-24T07:01:43.230Z,20.70
2023-05-24T07:04:10.222Z,20.51
2023-05-24T07:06:39.620Z,20.88
2023-05-24T07:09:07.592Z,20.95
2023-05-24T07:11:34.661Z,21.13
2023-05-24T07:14:01.367Z,21.03
2023-05-24T07:16:28.190Z,21.25
2023-05-24T07:18:55.643Z,21.06
2023-05-24T07:21:22.294Z,20.36
2023-05-24T07:23:49.701Z,20.70
2023-05-24T07:26:18.234Z,20.25
2023-05-24T07:28:44.966Z,20.33
2023-05-24T07:31:11.997Z,19.90
2023-05-24T07:33:39.530Z,19.93
2023-05-24T07:36:06.603Z,20.28
2023-05-24T07:38:33.354Z,20.65
2023-05-24T07:41:01.704Z,21.52
2023-05-24T07:43:29.784Z,22.22
2023-05-24T07:45:56.439Z,22.77
2023-05-24T07:48:23.888Z,23.11
2023-05-24T07:50:51.577Z,23.43
2023-05-24T07:53:18.227Z,23.23
2023-05-24T07:55:45.405Z,23.29
2023-05-24T07:58:14.502Z,23.42
2023-05-24T08:00:42.654Z,23.60
2023-05-24T08:03:09.530Z,23.83
2023-05-24T08:05:36.397Z,23.62
2023-05-24T08:08:03.041Z,23.54
2023-05-24T08:10:29.717Z,23.51
2023-05-24T08:12:56.365Z,23.22
2023-05-24T08:15:23.118Z,22.89
2023-05-24T08:17:51.774Z,22.90
2023-05-24T08:20:18.575Z,23.54
2023-05-24T08:22:45.289Z,23.63
2023-05-24T08:25:12.261Z,23.57
2023-05-24T08:27:38.863Z,23.20
2023-05-24T08:30:07.006Z,23.29
2023-05-24T08:32:33.763Z,23.49
2023-05-24T08:35:18.260Z,23.95
2023-05-24T08:37:47.419Z,24.08
2023-05-24T08:40:14.155Z,24.60
2023-05-24T08:42:41.647Z,23.92
2023-05-24T08:45:11.266Z,24.31
2023-05-24T08:47:38.952Z,24.10
2023-05-24T08:50:08.576Z,24.27
2023-05-24T08:52:36.854Z,24.32
2023-05-24T08:55:05.216Z,24.23
2023-05-24T08:57:32.920Z,24.51
2023-05-24T08:59:59.733Z,24.16
2023-05-24T09:02:27.187Z,24.34
2023-05-24T09:04:54.481Z,24.28
2023-05-24T09:07:23.241Z,23.50
2023-05-24T09:09:56.973Z,23.69
2023-05-24T09:12:36.154Z,23.71
2023-05-24T09:15:06.212Z,24.51
2023-05-24T09:17:34.263Z,24.61
2023-05-24T09:20:01.082Z,25.00
2023-05-24T09:22:29.753Z,24.88
2023-05-24T09:24:58.496Z,24.54
2023-05-24T09:27:25.482Z,23.92
2023-05-24T09:29:52.203Z,24.53
2023-05-24T09:32:20.439Z,24.04
2023-05-24T09:34:47.580Z,24.32
2023-05-24T09:37:15.802Z,24.14
2023-05-24T09:39:44.615Z,24.40
2023-05-24T09:42:15.159Z,24.18
2023-05-24T09:44:41.858Z,24.22
2023-05-24T09:47:08.593Z,24.37
2023-05-24T09:49:37.183Z,24.60
2023-05-24T09:52:04.713Z,24.25
2023-05-24T09:54:32.855Z,24.56
2023-05-24T09:57:03.442Z,24.98
2023-05-24T09:59:33.142Z,25.09
2023-05-24T10:02:08.255Z,25.15
2023-05-24T10:04:35.029Z,25.16
2023-05-24T10:07:02.097Z,24.72
2023-05-24T10:09:29.500Z,24.03
2023-05-24T10:11:56.686Z,24.83
2023-05-24T10:14:25.954Z,24.85
2023-05-24T10:16:52.773Z,25.23
2023-05-24T10:19:19.661Z,25.14
2023-05-24T10:21:46.650Z,25.07
2023-05-24T10:24:14.133Z,25.41
2023-05-24T10:26:41.743Z,25.50
2023-05-24T10:29:17.523Z,25.33
2023-05-24T10:31:46.443Z,25.57
2023-05-24T10:34:13.928Z,24.80
2023-05-24T10:36:40.867Z,25.11
2023-05-24T10:39:09.655Z,25.44
2023-05-24T10:41:39.473Z,25.65
2023-05-24T10:44:11.168Z,25.70
2023-05-24T10:47:11.741Z,25.37
2023-05-24T10:49:39.997Z,25.27
2023-05-24T10:52:10.691Z,24.72
2023-05-24T10:54:37.455Z,24.55
2023-05-24T10:57:06.211Z,24.97
2023-05-24T10:59:34.989Z,24.67
2023-05-24T11:02:02.646Z,25.35
2023-05-24T11:04:37.648Z,25.64
2023-05-24T11:07:06.056Z,25.36
2023-05-24T11:09:33.180Z,25.33
2023-05-24T11:12:02.724Z,24.87
2023-05-24T11:14:31.035Z,25.43
2023-05-24T11:16:59.718Z,25.70
2023-05-24T11:19:31.369Z,25.56
2023-05-24T11:22:00.049Z,25.45
2023-05-24T11:24:27.714Z,25.47
2023-05-24T11:26:54.832Z,25.17
2023-05-24T11:29:21.546Z,25.59
2023-05-24T11:31:48.987Z,25.55
2023-05-24T11:34:15.619Z,25.56
2023-05-24T11:36:42.807Z,25.81
2023-05-24T11:39:10.974Z,25.97
2023-05-24T11:41:38.817Z,25.32
2023-05-24T11:44:07.163Z,25.19
2023-05-24T11:46:33.999Z,24.77
2023-05-24T11:49:00.756Z,24.51
2023-05-24T11:51:28.149Z,23.85
2023-05-24T11:53:55.987Z,24.06
2023-05-24T11:56:24.387Z,24.28
2023-05-24T11:58:55.993Z,24.88
2023-05-24T12:01:26.575Z,24.27
2023-05-24T12:03:53.764Z,24.13
2023-05-24T12:06:21.154Z,24.64
2023-05-24T12:08:48.403Z,24.19
2023-05-24T12:11:15.434Z,24.47
2023-05-24T12:13:43.795Z,24.36
2023-05-24T12:16:11.929Z,23.64
2023-05-24T12:18:41.471Z,24.53
2023-05-24T12:21:12.574Z,24.61
2023-05-24T12:23:40.000Z,25.03
2023-05-24T12:26:06.621Z,25.17
2023-05-24T12:28:34.057Z,24.62
2023-05-24T12:31:02.601Z,23.64
2023-05-24T12:33:29.238Z,23.43
2023-05-24T12:35:56.463Z,22.89
2023-05-24T12:38:24.267Z,23.47
2023-05-24T12:41:03.869Z,23.95
2023-05-24T12:43:37.817Z,24.22
2023-05-24T12:46:05.993Z,24.51
2023-05-24T12:48:32.643Z,24.41
2023-05-24T12:50:59.478Z,24.72
2023-05-24T12:53:26.164Z,24.91
2023-05-24T12:55:53.232Z,24.18
2023-05-24T12:58:19.873Z,24.16
2023-05-24T13:00:46.711Z,24.01
2023-05-24T13:03:15.034Z,23.62
2023-05-24T13:05:41.839Z,23.67
2023-05-24T13:08:09.787Z,23.58
2023-05-24T13:10:36.687Z,24.40
2023-05-24T13:13:03.405Z,23.84
2023-05-24T13:15:29.989Z,24.05
2023-05-24T13:17:56.977Z,23.35
2023-05-24T13:20:25.606Z,23.18
2023-05-24T13:22:52.307Z,23.53
2023-05-24T13:25:19.117Z,24.19
2023-05-24T13:27:46.049Z,24.12
2023-05-24T13:30:13.200Z,23.57
2023-05-24T13:32:41.289Z,23.54
2023-05-24T13:35:08.962Z,23.36
2023-05-24T13:37:37.308Z,23.29
2023-05-24T13:40:04.774Z,23.53
2023-05-24T13:42:31.774Z,23.94
2023-05-24T13:44:58.561Z,24.23
2023-05-24T13:47:38.673Z,24.25
2023-05-24T13:50:07.420Z,24.20
2023-05-24T13:52:34.307Z,24.40
2023-05-24T13:55:03.964Z,24.63
2023-05-24T13:57:46.873Z,24.19
2023-05-24T14:00:18.444Z,23.87
2023-05-24T14:02:45.433Z,23.51
2023-05-24T14:05:24.809Z,23.86
2023-05-24T14:07:53.090Z,23.47
2023-05-24T14:10:21.875Z,23.39
2023-05-24T14:12:59.614Z,23.55
2023-05-24T14:15:36.058Z,23.72
2023-05-24T14:18:03.049Z,23.59
2023-05-24T14:20:29.705Z,23.73
2023-05-24T14:22:58.370Z,23.95
2023-05-24T14:25:26.611Z,23.36
2023-05-24T14:27:53.254Z,23.42
2023-05-24T14:30:20.023Z,24.16
2023-05-24T14:32:46.721Z,24.03
2023-05-24T14:35:13.416Z,23.55
2023-05-24T14:37:40.294Z,23.28
2023-05-24T14:40:08.109Z,23.75
2023-05-24T14:42:36.279Z,23.95
2023-05-24T14:45:03.004Z,24.25
2023-05-24T14:47:30.014Z,24.22
2023-05-24T14:49:56.686Z,23.61
2023-05-24T14:52:23.423Z,23.38
2023-05-24T14:54:50.037Z,23.88
2023-05-24T14:57:16.736Z,23.47
2023-05-24T14:59:44.952Z,23.44
2023-05-24T15:02:11.673Z,23.37
2023-05-24T15:04:38.259Z,23.48
2023-05-24T15:07:05.490Z,23.32
2023-05-24T15:09:32.155Z,23.52
2023-05-24T15:11:58.788Z,23.76
2023-05-24T15:14:25.515Z,23.34
2023-05-24T15:16:53.566Z,23.49
2023-05-24T15:19:20.246Z,23.61
2023-05-24T15:21:47.111Z,23.84
2023-05-24T15:24:13.771Z,23.74
2023-05-24T15:26:40.554Z,23.34
2023-05-24T15:29:07.313Z,22.94
2023-05-24T15:31:34.051Z,23.18
2023-05-24T15:34:02.309Z,22.84
2023-05-24T15:36:29.067Z,23.08
2023-05-24T15:38:55.672Z,23.25
2023-05-24T15:41:22.593Z,22.93
2023-05-24T15:43:51.304Z,22.53
2023-05-24T15:46:21.077Z,22.71
2023-05-24T15:48:47.694Z,22.90
2023-05-24T15:53:45.449Z,23.24
2023-05-24T15:56:12.025Z,23.00
2023-05-24T15:58:38.826Z,22.86
2023-05-24T16:01:06.032Z,22.37
2023-05-24T16:03:32.862Z,22.44
2023-05-24T16:05:59.734Z,22.85
2023-05-24T16:08:28.109Z,23.09
2023-05-24T16:10:55.031Z,23.47
2023-05-24T16:13:21.937Z,23.72
2023-05-24T16:15:48.976Z,23.80
2023-05-24T16:18:15.748Z,23.61
2023-05-24T16:20:43.017Z,23.46
2023-05-24T16:23:09.881Z,22.98
2023-05-24T16:25:37.830Z,22.96
2023-05-24T16:28:04.846Z,22.76
2023-05-24T16:30:31.493Z,22.99
2023-05-24T16:32:58.376Z,22.98
2023-05-24T16:35:25.505Z,23.68
2023-05-24T16:37:53.484Z,23.35
2023-05-24T16:40:20.215Z,23.21
2023-05-24T16:42:48.494Z,23.32
2023-05-24T16:45:15.365Z,23.02
2023-05-24T16:47:42.028Z,23.24
2023-05-24T16:50:09.898Z,23.44
2023-05-24T16:52:36.631Z,23.41
2023-05-24T16:55:03.638Z,23.32
2023-05-24T16:57:30.434Z,23.45
2023-05-24T16:59:58.676Z,23.62
2023-05-24T17:02:25.430Z,23.39
2023-05-24T17:04:52.212Z,23.37
2023-05-24T17:07:18.905Z,22.83
2023-05-24T17:09:47.823Z,22.80
2023-05-24T17:12:15.916Z,22.52
2023-05-24T17:14:42.570Z,22.94
2023-05-24T17:17:11.945Z,23.54
2023-05-24T17:19:38.679Z,23.64
2023-05-24T17:22:05.393Z,23.38
2023-05-24T17:24:32.354Z,23.03
2023-05-24T17:26:59.004Z,23.31
2023-05-24T17:29:25.612Z,23.72
2023-05-24T17:31:52.526Z,24.15
2023-05-24T17:34:20.658Z,24.15
2023-05-24T17:36:47.317Z,23.62
2023-05-24T17:39:13.978Z,23.63
2023-05-24T17:41:40.733Z,23.40
2023-05-24T17:44:07.615Z,23.46
2023-05-24T17:46:36.392Z,23.21
2023-05-24T17:49:03.950Z,23.24
2023-05-24T17:51:31.926Z,23.41
2023-05-24T17:53:58.602Z,23.00
2023-05-24T17:56:25.277Z,22.89
2023-05-24T17:58:51.875Z,22.86
2023-05-24T18:01:18.751Z,23.08
2023-05-24T18:03:45.578Z,23.55
2023-05-24T18:06:12.193Z,23.64
2023-05-24T18:08:40.296Z,23.40
2023-05-24T18:11:07.268Z,23.27
2023-05-24T18:13:33.918Z,23.19
2023-05-24T18:16:00.888Z,23.16
2023-05-24T18:18:27.712Z,23.22
2023-05-24T18:20:54.507Z,23.36
2023-05-24T18:23:22.700Z,23.13
2023-05-24T18:26:01.090Z,23.05
2023-05-24T18:28:29.964Z,23.20
2023-05-24T18:30:56.665Z,23.20
2023-05-24T18:33:24.469Z,23.33
2023-05-24T18:35:51.270Z,23.35
2023-05-24T18:38:17.904Z,23.33
2023-05-24T18:40:44.630Z,23.48
2023-05-24T18:43:12.764Z,23.37
2023-05-24T18:45:39.451Z,23.52
2023-05-24T18:48:06.185Z,23.62
2023-05-24T18:50:32.931Z,23.24
2023-05-24T18:52:59.531Z,23.01
2023-05-24T18:55:26.319Z,23.28
2023-05-24T18:57:52.969Z,23.24
2023-05-24T19:00:20.964Z,23.02
2023-05-24T19:02:47.669Z,22.90
2023-05-24T19:05:14.460Z,23.24
2023-05-24T19:07:41.463Z,23.12
2023-05-24T19:10:09.039Z,23.12
2023-05-24T19:12:35.792Z,22.65
2023-05-24T19:15:02.471Z,22.77
2023-05-24T19:17:30.576Z,22.67
2023-05-24T19:19:57.394Z,22.47
2023-05-24T19:22:24.103Z,22.76
2023-05-24T19:24:50.778Z,22.89
2023-05-24T19:27:17.523Z,23.06
2023-05-24T19:29:44.160Z,23.09
2023-05-24T19:32:10.842Z,22.83
2023-05-24T19:34:39.105Z,22.69
2023-05-24T19:37:05.779Z,22.65
2023-05-24T19:39:32.400Z,22.54
2023-05-24T19:41:59.090Z,22.37
2023-05-24T19:44:26.759Z,22.42
2023-05-24T19:46:53.391Z,22.30
2023-05-24T19:49:20.048Z,22.35
2023-05-24T19:51:48.101Z,22.48
2023-05-24T19:54:15.013Z,22.51
2023-05-24T19:56:41.938Z,22.59
2023-05-24T19:59:08.773Z,22.40
2023-05-24T20:01:35.513Z,22.38
2023-05-24T20:04:02.310Z,22.35
2023-05-24T20:06:29.050Z,22.33
2023-05-24T20:08:57.067Z,22.36
2023-05-24T20:11:24.061Z,22.38
2023-05-24T20:13:50.849Z,22.40
2023-05-24T20:16:17.648Z,22.36
2023-05-24T20:18:44.548Z,22.33
2023-05-24T20:21:11.885Z,22.17
2023-05-24T20:23:38.495Z,22.08
2023-05-24T20:26:06.808Z,22.06
2023-05-24T20:28:33.409Z,21.93
2023-05-24T20:31:00.069Z,21.78
2023-05-24T20:33:26.802Z,21.69
2023-05-24T20:35:53.530Z,21.80
2023-05-24T20:38:20.264Z,21.82
2023-05-24T20:40:46.974Z,21.85
2023-05-24T20:43:14.995Z,21.75
2023-05-24T20:45:41.870Z,21.60
2023-05-24T20:48:08.760Z,21.67
2023-05-24T20:50:35.452Z,21.76
2023-05-24T20:53:02.061Z,21.85
2023-05-24T20:55:28.713Z,21.90
2023-05-24T20:57:55.674Z,21.82
2023-05-24T21:00:23.709Z,21.85
2023-05-24T21:02:50.469Z,21.79
2023-05-24T21:05:17.197Z,21.69
2023-05-24T21:07:43.837Z,21.64
2023-05-24T21:10:16.956Z,21.69
2023-05-24T21:12:43.581Z,21.59
2023-05-24T21:15:10.743Z,21.55
2023-05-24T21:17:39.333Z,21.36
2023-05-24T21:20:06.886Z,21.41
2023-05-24T21:22:33.594Z,21.40
2023-05-24T21:25:00.313Z,21.30
2023-05-24T21:27:26.968Z,21.23
2023-05-24T21:29:53.680Z,21.12
2023-05-24T21:32:20.373Z,21.23
2023-05-24T21:34:48.518Z,21.34
2023-05-24T21:37:15.313Z,21.29
2023-05-24T21:39:42.022Z,21.21
2023-05-24T21:42:08.621Z,21.22
2023-05-24T21:44:35.482Z,21.21
2023-05-24T21:47:02.515Z,21.10
2023-05-24T21:49:29.310Z,21.12
2023-05-24T21:51:57.342Z,21.00
2023-05-24T21:54:23.970Z,20.95
2023-05-24T21:56:51.711Z,21.01
2023-05-24T21:59:18.753Z,20.92
2023-05-24T22:01:45.622Z,20.97
2023-05-24T22:04:12.432Z,21.05
2023-05-24T22:06:39.380Z,21.02
2023-05-24T22:09:09.137Z,21.03
2023-05-24T22:11:35.758Z,20.96
2023-05-24T22:14:02.627Z,20.90
2023-05-24T22:16:29.371Z,20.88
2023-05-24T22:18:56.025Z,20.93
2023-05-24T22:21:22.828Z,20.90
2023-05-24T22:23:50.918Z,20.83
2023-05-24T22:26:18.964Z,20.75
2023-05-24T22:28:50.966Z,20.87
2023-05-24T22:31:18.182Z,20.94
2023-05-24T22:33:44.887Z,21.06
2023-05-24T22:36:11.554Z,21.12
2023-05-24T22:38:39.326Z,21.04
2023-05-24T22:41:06.057Z,21.01
2023-05-24T22:43:38.314Z,20.92
2023-05-24T22:46:06.578Z,20.99
2023-05-24T22:48:34.346Z,20.80
2023-05-24T22:51:02.165Z,20.65
2023-05-24T22:53:28.954Z,20.79
2023-05-24T22:55:56.955Z,20.93
2023-05-24T22:58:24.401Z,21.03
2023-05-24T23:00:53.382Z,21.19
2023-05-24T23:03:20.399Z,21.19
2023-05-24T23:05:47.191Z,21.21
2023-05-24T23:08:13.843Z,21.10
2023-05-24T23:10:41.155Z,21.15
2023-05-24T23:13:07.812Z,21.04
2023-05-24T23:15:34.477Z,20.96
2023-05-24T23:18:02.726Z,20.93
2023-05-24T23:20:29.545Z,20.85
2023-05-24T23:22:56.248Z,20.83
2023-05-24T23:25:23.073Z,20.83
2023-05-24T23:27:49.734Z,20.88
2023-05-24T23:30:16.493Z,20.88
2023-05-24T23:32:43.688Z,20.83
2023-05-24T23:35:11.663Z,20.82
2023-05-24T23:37:38.266Z,20.79
2023-05-24T23:40:06.315Z,20.72
2023-05-24T23:42:33.003Z,20.48
2023-05-24T23:44:59.716Z,20.48
2023-05-24T23:47:26.642Z,20.55
2023-05-24T23:49:53.304Z,20.65
2023-05-24T23:52:21.314Z,20.75
2023-05-24T23:54:48.054Z,20.70
2023-05-24T23:57:14.786Z,20.69
2023-05-24T23:59:41.431Z,20.59
